Time;durP1;ratioP1;P1;durP2;ratioP2;P2;SDS_P1;SDS_P2;PMS_P1;PMS_P2;Temp;Humidity;BMP_temperature;BMP_pressure;BME280_temperature;BME280_humidity;BME280_pressure;Samples;Min_cycle;Max_cycle;Signal;HPM_P1;HPM_P2
2022/02/11 00:07:08;;;;;;;2.20;2.10;;;6.30;99.90;;;;;;4983244;28;20334;-92
2022/02/11 00:09:34;;;;;;;0.83;0.83;;;6.30;99.90;;;;;;4986551;28;20223;-92
2022/02/11 00:12:00;;;;;;;1.33;1.30;;;6.40;99.90;;;;;;4996285;28;20216;-93
2022/02/11 00:14:28;;;;;;;1.00;0.97;;;6.40;99.90;;;;;;4995656;28;20714;-92
2022/02/11 00:16:54;;;;;;;0.97;0.97;;;6.40;99.90;;;;;;4996106;28;20587;-93
2022/02/11 00:19:20;;;;;;;5.20;2.53;;;6.40;99.90;;;;;;4996854;28;20204;-91
2022/02/11 00:21:46;;;;;;;3.87;1.50;;;6.40;99.90;;;;;;4980845;28;20222;-94
2022/02/11 00:24:13;;;;;;;2.93;0.60;;;6.50;99.90;;;;;;4995386;28;20228;-91
2022/02/11 00:26:42;;;;;;;0.40;0.40;;;6.50;99.90;;;;;;4987434;28;20218;-91
2022/02/11 00:34:28;;;;;;;0.43;0.43;;;6.50;99.90;;;;;;4996098;28;21047;-92
2022/02/11 00:37:08;;;;;;;0.80;0.80;;;6.30;99.90;;;;;;4996083;28;20223;-90
2022/02/11 01:05:59;;;;;;;0.30;0.30;;;6.30;99.90;;;;;;5001897;28;20218;-94
2022/02/11 01:08:25;;;;;;;1.30;0.50;;;6.20;99.90;;;;;;4998466;28;20226;-93
2022/02/11 01:10:51;;;;;;;0.40;0.40;;;6.10;99.90;;;;;;4983184;28;20226;-93
2022/02/11 01:13:17;;;;;;;0.50;0.50;;;6.00;99.90;;;;;;4999266;28;20276;-92
2022/02/11 01:15:51;;;;;;;0.20;0.20;;;6.00;99.90;;;;;;5000048;28;20234;-92
2022/02/11 01:18:17;;;;;;;0.20;0.20;;;5.90;99.90;;;;;;4991493;28;20233;-92
2022/02/11 01:20:51;;;;;;;0.33;0.33;;;5.90;99.90;;;;;;4983753;28;20223;-93
2022/02/11 01:23:45;;;;;;;0.20;0.20;;;5.90;99.90;;;;;;4999173;28;20222;-93
2022/02/11 01:26:27;;;;;;;0.10;0.10;;;5.90;99.90;;;;;;5010605;28;20707;-93
2022/02/11 01:31:55;;;;;;;1.60;1.50;;;5.90;99.90;;;;;;5001557;28;20188;-92
2022/02/11 01:37:28;;;;;;;1.70;1.60;;;6.00;99.90;;;;;;4999921;28;20214;-95
2022/02/11 01:55:59;;;;;;;5.80;1.10;;;6.50;99.90;;;;;;4984644;28;20227;-94
2022/02/11 02:06:09;;;;;;;0.77;0.63;;;6.70;99.90;;;;;;4998535;28;20216;-93
2022/02/11 02:11:57;;;;;;;0.60;0.53;;;6.60;99.90;;;;;;4992236;28;20219;-94
2022/02/11 02:24:40;;;;;;;0.60;0.60;;;6.70;99.90;;;;;;5001992;28;20219;-93
2022/02/11 02:27:24;;;;;;;0.30;0.30;;;6.70;99.90;;;;;;4986349;28;20219;-92
2022/02/11 02:33:11;;;;;;;1.03;0.63;;;6.70;99.90;;;;;;4999195;28;20273;-94
2022/02/11 02:56:52;;;;;;;0.20;0.20;;;6.20;99.90;;;;;;4983616;28;20219;-92
2022/02/11 03:34:40;;;;;;;1.03;0.90;;;6.40;99.90;;;;;;4999149;28;20294;-93
2022/02/11 03:35:04;;;;;;;1.80;0.87;;;6.40;99.90;;;;;;4997292;28;20215;-92
2022/02/11 04:55:46;;;;;;;0.87;0.60;;;5.80;99.90;;;;;;4997018;28;20195;-91
2022/02/11 05:00:56;;;;;;;3.50;1.50;;;5.80;99.90;;;;;;4996804;28;20219;-89
2022/02/11 05:03:21;;;;;;;2.13;2.00;;;5.90;99.90;;;;;;4971752;28;21229;-90
2022/02/11 05:05:50;;;;;;;3.13;1.00;;;5.90;99.90;;;;;;4980189;28;20249;-89
2022/02/11 05:08:21;;;;;;;11.03;1.77;;;6.10;99.90;;;;;;4972491;28;20243;-91
2022/02/11 05:10:55;;;;;;;4.33;1.63;;;6.30;99.90;;;;;;4994795;28;20195;-90
2022/02/11 05:13:21;;;;;;;6.20;1.60;;;6.30;99.90;;;;;;4997124;28;20712;-90
2022/02/11 05:15:47;;;;;;;1.20;1.07;;;6.30;99.90;;;;;;4997099;28;20316;-92
2022/02/11 05:18:14;;;;;;;4.47;1.80;;;6.30;99.90;;;;;;4997406;28;20278;-92
2022/02/11 05:20:43;;;;;;;3.17;1.30;;;5.90;99.90;;;;;;4997517;28;20226;-92
2022/02/11 05:23:12;;;;;;;1.60;1.00;;;5.90;99.90;;;;;;4980406;28;20746;-91
2022/02/11 05:25:39;;;;;;;2.57;1.27;;;5.90;99.90;;;;;;4981188;28;20246;-92
2022/02/11 05:28:06;;;;;;;2.73;0.97;;;6.00;99.90;;;;;;4995046;28;20216;-91
2022/02/11 05:30:32;;;;;;;3.10;1.43;;;6.10;99.90;;;;;;4996536;28;20227;-91
2022/02/11 05:33:00;;;;;;;5.73;2.97;;;6.20;99.90;;;;;;4994794;28;20224;-92
2022/02/11 05:35:26;;;;;;;9.87;1.97;;;6.20;99.90;;;;;;4997567;28;20227;-92
2022/02/11 05:37:52;;;;;;;4.13;1.03;;;6.10;99.90;;;;;;4996952;28;20294;-92
2022/02/11 05:40:18;;;;;;;4.20;1.90;;;6.00;99.90;;;;;;4980414;28;20544;-92
2022/02/11 05:42:44;;;;;;;6.17;1.00;;;6.10;99.90;;;;;;4997974;28;20347;-89
2022/02/11 05:45:11;;;;;;;4.53;1.33;;;6.20;99.90;;;;;;5000875;28;20314;-90
2022/02/11 05:47:37;;;;;;;6.60;2.07;;;6.10;99.90;;;;;;5000110;28;20219;-91
2022/02/11 05:50:04;;;;;;;3.33;1.10;;;6.10;99.90;;;;;;4981231;28;20234;-90
2022/02/11 05:52:31;;;;;;;7.83;1.97;;;6.20;99.90;;;;;;4998489;28;21019;-90
2022/02/11 05:54:57;;;;;;;3.73;1.03;;;6.10;99.90;;;;;;4999742;28;20223;-89
2022/02/11 05:57:22;;;;;;;5.30;1.33;;;6.00;99.90;;;;;;4999009;28;20238;-89
2022/02/11 05:59:49;;;;;;;1.13;0.90;;;5.90;99.90;;;;;;4998563;28;20723;-91
2022/02/11 06:02:15;;;;;;;3.30;1.10;;;5.90;99.90;;;;;;5001215;28;20302;-88
2022/02/11 06:04:41;;;;;;;1.07;1.03;;;5.90;99.90;;;;;;5000185;28;20486;-88
2022/02/11 06:07:07;;;;;;;4.37;1.37;;;5.90;99.90;;;;;;4998535;28;21321;-90
2022/02/11 06:09:33;;;;;;;5.30;1.70;;;5.90;99.90;;;;;;4996978;28;20219;-89
2022/02/11 06:11:58;;;;;;;3.63;0.80;;;6.00;99.90;;;;;;4999794;28;20223;-87
2022/02/11 06:14:24;;;;;;;0.63;0.33;;;6.10;99.90;;;;;;4999378;28;20274;-90
2022/02/11 06:16:50;;;;;;;1.33;0.93;;;6.10;99.90;;;;;;4998851;28;20227;-90
2022/02/11 06:19:16;;;;;;;4.10;1.60;;;6.10;99.90;;;;;;5001117;28;20195;-89
2022/02/11 06:21:42;;;;;;;5.30;1.50;;;6.10;99.90;;;;;;4981844;28;20709;-89
2022/02/11 06:24:08;;;;;;;0.40;0.40;;;6.20;99.90;;;;;;4999450;28;20230;-90
2022/02/11 06:26:34;;;;;;;1.17;1.07;;;6.20;99.90;;;;;;4998959;28;20223;-88
2022/02/11 06:29:00;;;;;;;8.13;1.23;;;6.10;99.90;;;;;;4981788;28;20215;-87
2022/02/11 06:31:26;;;;;;;3.27;2.00;;;6.10;99.90;;;;;;4997269;28;20191;-88
2022/02/11 06:33:52;;;;;;;3.07;0.90;;;6.20;99.90;;;;;;4996651;28;20227;-89
2022/02/11 06:36:18;;;;;;;1.93;1.13;;;6.20;99.90;;;;;;4997338;28;20737;-90
2022/02/11 06:38:44;;;;;;;2.10;1.07;;;6.00;99.90;;;;;;4982335;28;20216;-90
2022/02/11 06:41:10;;;;;;;2.03;0.93;;;6.10;99.90;;;;;;4999724;28;20221;-88
2022/02/11 06:43:35;;;;;;;1.50;0.67;;;5.70;99.90;;;;;;4982110;28;20243;-89
2022/02/11 06:46:02;;;;;;;2.93;1.47;;;5.60;99.90;;;;;;4997503;28;21034;-90
2022/02/11 06:48:29;;;;;;;3.57;1.93;;;5.60;99.90;;;;;;4997707;28;20219;-89
2022/02/11 06:50:55;;;;;;;5.17;1.37;;;5.80;99.90;;;;;;4997363;28;20250;-91
2022/02/11 06:53:22;;;;;;;5.50;1.17;;;5.70;99.90;;;;;;4996979;28;20240;-89
2022/02/11 06:55:48;;;;;;;0.63;0.47;;;5.60;99.90;;;;;;4997344;28;20202;-90
2022/02/11 06:58:15;;;;;;;7.10;3.07;;;5.50;99.90;;;;;;5000185;28;20191;-87
2022/02/11 07:00:47;;;;;;;3.97;1.07;;;5.30;99.90;;;;;;4997771;28;20219;-89
2022/02/11 07:03:13;;;;;;;1.13;0.97;;;4.80;99.90;;;;;;4997511;28;20232;-88
2022/02/11 07:05:40;;;;;;;2.73;0.93;;;4.80;99.90;;;;;;4995960;28;20238;-87
2022/02/11 07:08:06;;;;;;;0.53;0.53;;;4.90;99.90;;;;;;4998408;28;20226;-88
2022/02/11 07:10:32;;;;;;;0.87;0.50;;;5.10;99.90;;;;;;4999400;28;20378;-86
2022/02/11 07:12:58;;;;;;;5.40;0.87;;;5.20;99.90;;;;;;4988705;28;20330;-88
2022/02/11 07:15:24;;;;;;;6.17;2.10;;;5.10;99.90;;;;;;4996847;28;20298;-90
2022/02/11 07:17:50;;;;;;;0.80;0.80;;;5.20;99.90;;;;;;4997283;28;20740;-90
2022/02/11 07:20:16;;;;;;;8.57;2.03;;;5.30;99.90;;;;;;4981247;28;20228;-88
2022/02/11 07:22:42;;;;;;;2.30;1.03;;;5.40;99.90;;;;;;4978741;28;20241;-86
2022/02/11 07:25:11;;;;;;;5.97;1.93;;;5.50;99.90;;;;;;4991830;28;20349;-90
2022/02/11 07:27:37;;;;;;;2.63;1.60;;;5.60;99.90;;;;;;4995715;28;20215;-92
2022/02/11 07:30:05;;;;;;;1.73;0.90;;;5.70;99.90;;;;;;4994836;28;20258;-90
2022/02/11 07:32:30;;;;;;;3.27;1.30;;;5.70;99.90;;;;;;4994596;28;20219;-90
2022/02/11 07:35:00;;;;;;;0.80;0.80;;;5.50;99.90;;;;;;4980811;28;20231;-93
2022/02/11 07:37:27;;;;;;;0.53;0.50;;;5.40;99.90;;;;;;4997011;28;20572;-93
2022/02/11 07:39:53;;;;;;;1.10;0.87;;;5.40;99.90;;;;;;4986917;28;20232;-89
2022/02/11 07:42:20;;;;;;;0.73;0.73;;;5.30;99.90;;;;;;4982912;28;21126;-85
2022/02/11 07:44:46;;;;;;;0.40;0.40;;;5.40;99.90;;;;;;4996954;28;20326;-92
2022/02/11 07:47:12;;;;;;;7.37;0.90;;;5.60;99.90;;;;;;4970863;28;20315;-89
2022/02/11 07:49:38;;;;;;;2.20;2.00;;;5.90;99.90;;;;;;4981604;28;20226;-89
2022/02/11 07:52:05;;;;;;;7.53;0.73;;;5.70;99.90;;;;;;4980787;28;20211;-90
2022/02/11 07:54:31;;;;;;;5.80;1.40;;;5.70;99.90;;;;;;4981021;28;20227;-90
2022/02/11 07:56:57;;;;;;;2.60;1.10;;;5.90;99.90;;;;;;4994479;28;20220;-89
2022/02/11 07:59:23;;;;;;;2.63;2.33;;;6.10;99.90;;;;;;4987074;28;20227;-87
2022/02/11 08:01:49;;;;;;;2.20;0.97;;;6.40;99.90;;;;;;4988578;28;20203;-89
2022/02/11 08:04:15;;;;;;;2.97;0.73;;;6.60;99.90;;;;;;4997590;28;20231;-88
2022/02/11 08:06:41;;;;;;;0.73;0.73;;;6.40;99.90;;;;;;4996882;28;20242;-88
2022/02/11 08:09:07;;;;;;;4.07;0.93;;;6.40;99.90;;;;;;4978403;28;20246;-89
2022/02/11 08:11:33;;;;;;;2.47;1.67;;;6.40;99.90;;;;;;4996667;28;20250;-89
2022/02/11 08:13:59;;;;;;;2.00;0.80;;;6.60;99.90;;;;;;4993765;28;20215;-88
2022/02/11 08:16:25;;;;;;;0.20;0.20;;;6.80;99.90;;;;;;4994296;28;20223;-90
2022/02/11 08:18:51;;;;;;;11.47;1.87;;;6.70;99.90;;;;;;4994437;28;20304;-89
2022/02/11 08:21:17;;;;;;;2.33;1.00;;;6.60;99.90;;;;;;4997391;28;20527;-88
2022/02/11 08:23:44;;;;;;;1.27;0.87;;;6.40;99.90;;;;;;4995211;28;20224;-87
2022/02/11 08:26:10;;;;;;;1.37;1.03;;;6.40;99.90;;;;;;4993415;28;20250;-89
2022/02/11 08:28:36;;;;;;;2.53;0.70;;;6.40;99.90;;;;;;4995591;28;20608;-89
2022/02/11 08:31:03;;;;;;;1.57;1.23;;;6.20;99.90;;;;;;4978659;28;20701;-88
2022/02/11 08:33:29;;;;;;;25.07;2.00;;;6.00;99.90;;;;;;4996478;28;20212;-87
2022/02/11 08:35:56;;;;;;;2.33;1.03;;;6.00;99.90;;;;;;4978442;28;20223;-90
2022/02/11 08:38:25;;;;;;;8.57;1.70;;;5.90;99.90;;;;;;4995954;28;20681;-88
2022/02/11 08:40:52;;;;;;;1.10;1.00;;;5.80;99.90;;;;;;4994699;28;20223;-89
2022/02/11 08:43:21;;;;;;;1.00;0.57;;;5.90;99.90;;;;;;4996986;28;20199;-89
2022/02/11 08:45:48;;;;;;;0.40;0.40;;;5.90;99.90;;;;;;4986531;28;20239;-89
2022/02/11 08:48:15;;;;;;;1.70;1.17;;;6.00;99.90;;;;;;4979681;28;20223;-88
2022/02/11 08:50:42;;;;;;;0.23;0.23;;;6.10;99.90;;;;;;4979846;28;20242;-88
2022/02/11 08:53:10;;;;;;;4.83;0.40;;;6.20;99.90;;;;;;4994975;28;20315;-87
2022/02/11 08:55:36;;;;;;;0.63;0.63;;;6.20;99.90;;;;;;4996333;28;20195;-89
2022/02/11 08:58:06;;;;;;;0.40;0.40;;;6.20;99.90;;;;;;4978222;28;20306;-89
2022/02/11 09:00:32;;;;;;;0.10;0.10;;;6.20;99.90;;;;;;4994006;28;20242;-85
2022/02/11 09:02:58;;;;;;;1.63;0.60;;;6.10;99.90;;;;;;4994077;28;20243;-86
2022/02/11 09:05:27;;;;;;;0.50;0.50;;;6.20;99.90;;;;;;4987883;28;20298;-87
2022/02/11 09:07:54;;;;;;;5.50;1.00;;;6.30;99.90;;;;;;4979324;28;20199;-85
2022/02/11 09:10:21;;;;;;;0.30;0.30;;;6.50;99.90;;;;;;4980236;28;20191;-84
2022/02/11 09:12:47;;;;;;;2.03;1.03;;;6.60;99.90;;;;;;4986505;28;20220;-84
2022/02/11 09:15:13;;;;;;;0.50;0.50;;;6.60;99.90;;;;;;4977198;28;20780;-84
2022/02/11 09:17:39;;;;;;;2.37;1.57;;;6.60;99.90;;;;;;4988859;28;20227;-84
2022/02/11 09:20:05;;;;;;;3.50;0.60;;;6.50;99.90;;;;;;4973147;28;20227;-87
2022/02/11 09:22:31;;;;;;;10.70;1.67;;;6.40;99.90;;;;;;4975929;28;20270;-84
2022/02/11 09:24:57;;;;;;;0.10;0.10;;;6.20;99.90;;;;;;4983502;28;21082;-85
2022/02/11 09:27:23;;;;;;;0.30;0.30;;;6.30;99.90;;;;;;4974454;28;20242;-84
2022/02/11 09:29:49;;;;;;;0.97;0.97;;;6.40;99.90;;;;;;5001534;28;20642;-86
2022/02/11 09:32:16;;;;;;;0.67;0.67;;;6.60;99.90;;;;;;4999633;28;20272;-86
2022/02/11 09:34:42;;;;;;;0.30;0.30;;;6.60;99.90;;;;;;4999048;28;20231;-85
2022/02/11 09:37:07;;;;;;;2.00;1.80;;;6.70;99.90;;;;;;5000132;28;20223;-84
2022/02/11 09:39:33;;;;;;;2.10;0.40;;;6.60;99.90;;;;;;4981482;28;20579;-87
2022/02/11 09:41:59;;;;;;;4.87;1.27;;;6.60;99.90;;;;;;4998965;28;20764;-86
2022/02/11 09:44:27;;;;;;;7.23;0.87;;;6.60;99.90;;;;;;4973462;28;20813;-86
2022/02/11 09:46:55;;;;;;;1.13;0.70;;;6.50;99.90;;;;;;4998295;28;20195;-85
2022/02/11 09:49:22;;;;;;;1.40;0.30;;;6.60;99.90;;;;;;5001537;28;20198;-83
2022/02/11 09:51:57;;;;;;;0.30;0.30;;;6.80;99.90;;;;;;4997639;28;20215;-87
2022/02/11 09:54:23;;;;;;;0.27;0.27;;;7.00;99.90;;;;;;4999978;28;20272;-87
2022/02/11 09:56:50;;;;;;;0.27;0.27;;;7.00;99.90;;;;;;4997510;28;20223;-86
2022/02/11 09:59:17;;;;;;;1.63;1.37;;;6.90;99.90;;;;;;4981876;28;20329;-86
2022/02/11 10:01:43;;;;;;;4.23;0.70;;;6.80;99.90;;;;;;4998013;28;20239;-85
2022/02/11 10:04:19;;;;;;;3.67;0.97;;;6.60;99.90;;;;;;4988981;28;20216;-84
2022/02/11 10:06:48;;;;;;;2.43;2.30;;;6.60;99.90;;;;;;4997081;28;20235;-86
2022/02/11 10:09:19;;;;;;;5.30;2.10;;;6.60;99.90;;;;;;4981035;28;20625;-88
2022/02/11 10:11:45;;;;;;;1.23;0.73;;;6.60;99.90;;;;;;4997618;28;20527;-83
2022/02/11 10:14:25;;;;;;;0.60;0.60;;;6.60;99.90;;;;;;5000240;28;21028;-84
2022/02/11 10:17:05;;;;;;;9.77;2.17;;;6.60;99.90;;;;;;4997098;28;20191;-86
2022/02/11 10:19:52;;;;;;;1.10;0.50;;;6.70;99.90;;;;;;4995135;28;20192;-85
2022/02/11 10:22:31;;;;;;;0.77;0.70;;;6.80;99.90;;;;;;4988469;28;20301;-86
2022/02/11 10:24:58;;;;;;;3.00;0.97;;;6.80;99.90;;;;;;4979245;28;20869;-85
2022/02/11 10:27:35;;;;;;;1.07;1.07;;;6.80;99.90;;;;;;4996587;28;20243;-84
2022/02/11 10:30:07;;;;;;;0.10;0.10;;;6.80;99.90;;;;;;4996002;28;20310;-88
2022/02/11 10:32:44;;;;;;;0.10;0.10;;;6.80;99.90;;;;;;4998199;28;20234;-85
2022/02/11 10:35:14;;;;;;;1.40;0.40;;;6.80;99.90;;;;;;4997054;28;20228;-86
2022/02/11 10:38:04;;;;;;;0.20;0.20;;;6.80;99.90;;;;;;5001042;28;20271;-87
2022/02/11 10:40:31;;;;;;;1.43;0.70;;;6.90;99.90;;;;;;4999087;28;21115;-85
2022/02/11 10:42:57;;;;;;;0.20;0.20;;;6.90;99.90;;;;;;4994089;28;20957;-85
2022/02/11 10:45:28;;;;;;;1.77;0.90;;;6.80;99.90;;;;;;4996297;28;20227;-86
2022/02/11 10:48:18;;;;;;;1.97;0.40;;;6.80;99.90;;;;;;4981526;28;20220;-87
2022/02/11 10:50:52;;;;;;;0.20;0.20;;;6.80;99.90;;;;;;4996249;28;20225;-84
2022/02/11 10:53:22;;;;;;;13.33;1.23;;;6.80;99.90;;;;;;4997359;28;20226;-85
2022/02/11 10:55:52;;;;;;;0.93;0.63;;;6.90;99.90;;;;;;4996896;28;20223;-85
2022/02/11 10:58:19;;;;;;;0.30;0.30;;;6.90;99.90;;;;;;4996076;28;20184;-85
2022/02/11 11:00:46;;;;;;;0.43;0.43;;;7.00;99.90;;;;;;4992433;28;20219;-89
2022/02/11 11:03:12;;;;;;;6.40;0.77;;;6.90;99.90;;;;;;4992812;28;20651;-91
2022/02/11 11:05:43;;;;;;;0.40;0.40;;;6.80;99.90;;;;;;4993708;28;20345;-86
2022/02/11 11:08:11;;;;;;;2.87;0.60;;;6.80;99.90;;;;;;4992377;28;20220;-86
2022/02/11 11:10:47;;;;;;;0.30;0.30;;;6.70;99.90;;;;;;4984767;28;20244;-85
2022/02/11 11:13:15;;;;;;;0.40;0.40;;;6.70;99.90;;;;;;4993330;28;20333;-88
2022/02/11 11:15:43;;;;;;;0.83;0.83;;;6.70;99.90;;;;;;4994096;28;20618;-89
2022/02/11 11:18:10;;;;;;;0.37;0.37;;;6.80;99.90;;;;;;4995918;28;20218;-88
2022/02/11 11:20:37;;;;;;;0.47;0.47;;;6.60;99.90;;;;;;4978704;28;20215;-86
2022/02/11 11:23:29;;;;;;;0.30;0.30;;;6.80;99.90;;;;;;4992996;28;20243;-87
2022/02/11 11:26:01;;;;;;;0.30;0.30;;;7.10;99.90;;;;;;4994408;28;20741;-88
2022/02/11 11:28:43;;;;;;;0.30;0.30;;;7.20;99.90;;;;;;4995657;28;20191;-86
2022/02/11 11:31:29;;;;;;;0.20;0.20;;;6.90;99.90;;;;;;4995694;28;20281;-86
2022/02/11 11:34:16;;;;;;;0.20;0.20;;;7.00;99.90;;;;;;4996100;28;20226;-87
2022/02/11 11:36:46;;;;;;;0.30;0.30;;;7.60;99.90;;;;;;4998386;28;20219;-87
2022/02/11 11:39:12;;;;;;;0.20;0.20;;;8.00;99.90;;;;;;4985581;28;20224;-85
2022/02/11 11:41:38;;;;;;;0.47;0.43;;;8.20;99.90;;;;;;4994913;28;20267;-87
2022/02/11 11:44:16;;;;;;;0.70;0.63;;;7.90;99.90;;;;;;4979061;28;20239;-85
2022/02/11 11:46:53;;;;;;;1.17;1.17;;;8.20;99.90;;;;;;4997857;28;20214;-87
2022/02/11 11:49:21;;;;;;;0.50;0.20;;;8.20;99.90;;;;;;4997882;28;20294;-86
2022/02/11 11:51:47;;;;;;;0.63;0.27;;;8.30;99.90;;;;;;4998966;28;20248;-87
2022/02/11 11:54:15;;;;;;;0.20;0.20;;;8.40;99.90;;;;;;4996722;28;21232;-87
2022/02/11 11:56:50;;;;;;;0.60;0.50;;;8.40;99.90;;;;;;4994756;28;20227;-85
2022/02/11 11:59:28;;;;;;;0.80;0.80;;;8.50;99.90;;;;;;4993982;28;20219;-85
2022/02/11 12:02:23;;;;;;;0.10;0.10;;;8.60;99.90;;;;;;4995135;28;20341;-86
2022/02/11 12:04:57;;;;;;;0.30;0.30;;;8.20;99.90;;;;;;4978197;28;20223;-84
2022/02/11 12:07:31;;;;;;;0.50;0.50;;;8.10;99.90;;;;;;4984579;28;20205;-84
2022/02/11 12:09:59;;;;;;;0.20;0.20;;;8.20;99.90;;;;;;4969891;28;20315;-86
2022/02/11 12:12:29;;;;;;;0.77;0.73;;;8.10;99.90;;;;;;4997962;28;20700;-86
2022/02/11 12:14:58;;;;;;;0.20;0.20;;;8.10;99.90;;;;;;4998474;28;20215;-85
2022/02/11 12:17:25;;;;;;;0.10;0.10;;;8.10;99.90;;;;;;4997434;28;20222;-87
2022/02/11 12:19:53;;;;;;;3.60;3.40;;;8.10;99.90;;;;;;4993878;28;20196;-85
2022/02/11 12:22:21;;;;;;;0.20;0.20;;;8.10;99.90;;;;;;4996096;28;20694;-87
2022/02/11 12:27:36;;;;;;;1.80;0.50;;;8.40;99.90;;;;;;4995915;28;20211;-87
2022/02/11 12:30:15;;;;;;;1.30;0.67;;;8.10;99.90;;;;;;4995658;28;20246;-87
2022/02/11 12:32:46;;;;;;;1.27;0.40;;;8.10;99.90;;;;;;4996948;28;20219;-88
2022/02/11 12:35:21;;;;;;;0.40;0.40;;;8.00;99.90;;;;;;4993949;28;20223;-86
2022/02/11 12:37:47;;;;;;;7.83;0.60;;;7.90;99.90;;;;;;4995526;28;20195;-87
2022/02/11 12:40:16;;;;;;;0.20;0.20;;;7.90;99.90;;;;;;4996824;28;20215;-87
2022/02/11 12:42:47;;;;;;;0.20;0.20;;;7.90;99.90;;;;;;4994215;28;20219;-87
2022/02/11 12:45:19;;;;;;;1.43;1.30;;;8.10;99.90;;;;;;4996724;28;20267;-87
2022/02/11 12:47:45;;;;;;;0.43;0.40;;;8.20;99.90;;;;;;4994386;28;20224;-87
2022/02/11 12:50:12;;;;;;;0.20;0.20;;;8.30;99.90;;;;;;4996653;28;20250;-85
2022/02/11 12:52:39;;;;;;;1.77;0.40;;;8.30;99.90;;;;;;4995755;28;20642;-87
2022/02/11 12:55:10;;;;;;;0.20;0.20;;;8.10;99.90;;;;;;4979260;28;20257;-85
2022/02/11 12:57:38;;;;;;;13.10;0.73;;;7.50;99.90;;;;;;4996102;28;20211;-84
2022/02/11 13:00:07;;;;;;;0.87;0.50;;;7.40;99.90;;;;;;4992900;28;20588;-84
2022/02/11 13:02:35;;;;;;;0.47;0.30;;;7.60;99.90;;;;;;4996762;28;20223;-84
2022/02/11 13:05:07;;;;;;;0.10;0.10;;;7.70;99.90;;;;;;4994398;28;20282;-84
2022/02/11 13:07:36;;;;;;;0.30;0.30;;;7.90;99.90;;;;;;4995534;28;20184;-85
2022/02/11 13:10:03;;;;;;;0.60;0.60;;;8.20;99.90;;;;;;4995578;28;20254;-85
2022/02/11 13:12:43;;;;;;;0.30;0.30;;;8.10;99.90;;;;;;4994238;28;20223;-84
2022/02/11 13:15:12;;;;;;;2.10;0.50;;;8.00;99.90;;;;;;4996109;28;20308;-85
2022/02/11 13:17:40;;;;;;;0.40;0.40;;;7.60;99.90;;;;;;4995737;28;20695;-85
2022/02/11 13:20:12;;;;;;;1.53;0.27;;;7.50;99.90;;;;;;4996061;28;20223;-84
2022/02/11 13:22:41;;;;;;;2.63;0.63;;;7.70;99.90;;;;;;4996933;28;20571;-86
2022/02/11 13:25:08;;;;;;;0.40;0.40;;;7.50;99.90;;;;;;4993450;28;20357;-86
2022/02/11 13:27:44;;;;;;;3.60;0.70;;;7.60;99.90;;;;;;4995322;28;20301;-84
2022/02/11 13:30:12;;;;;;;1.13;0.47;;;7.70;99.90;;;;;;4993955;28;20698;-86
2022/02/11 13:32:37;;;;;;;0.30;0.30;;;7.60;99.90;;;;;;4978374;28;20227;-86
2022/02/11 13:35:06;;;;;;;0.77;0.77;;;7.60;99.90;;;;;;4969856;28;20192;-85
2022/02/11 13:37:39;;;;;;;0.20;0.20;;;7.70;99.90;;;;;;4994472;28;20199;-84
2022/02/11 13:40:30;;;;;;;0.40;0.40;;;7.80;99.90;;;;;;5002543;28;20249;-83
2022/02/11 13:43:01;;;;;;;0.70;0.43;;;7.90;99.90;;;;;;4995002;28;20307;-84
2022/02/11 13:45:29;;;;;;;0.20;0.20;;;7.80;99.90;;;;;;4995576;28;20274;-84
2022/02/11 13:48:00;;;;;;;11.10;1.33;;;7.70;99.90;;;;;;4978753;28;20347;-84
2022/02/11 13:50:26;;;;;;;0.30;0.30;;;7.70;99.90;;;;;;4995060;28;20726;-84
2022/02/11 13:53:02;;;;;;;0.93;0.93;;;7.80;99.90;;;;;;4979265;28;20202;-83
2022/02/11 13:55:29;;;;;;;0.20;0.20;;;7.80;99.90;;;;;;4979251;28;20278;-83
2022/02/11 13:57:55;;;;;;;0.27;0.23;;;7.80;99.90;;;;;;4978785;28;20618;-83
2022/02/11 14:00:27;;;;;;;0.60;0.60;;;7.80;99.90;;;;;;4994741;28;20686;-84
2022/02/11 14:02:52;;;;;;;0.30;0.30;;;7.80;99.90;;;;;;4996141;28;20687;-83
2022/02/11 14:05:18;;;;;;;0.40;0.40;;;7.80;99.90;;;;;;4996263;28;20311;-84
2022/02/11 14:07:55;;;;;;;0.70;0.20;;;7.90;99.90;;;;;;5000064;28;21305;-85
2022/02/11 14:10:22;;;;;;;0.20;0.20;;;7.80;99.90;;;;;;4998550;28;20215;-82
2022/02/11 14:12:49;;;;;;;0.30;0.30;;;7.80;99.90;;;;;;4998471;28;20226;-83
2022/02/11 14:15:16;;;;;;;0.50;0.30;;;7.80;99.90;;;;;;4996387;28;20263;-84
2022/02/11 14:17:43;;;;;;;0.30;0.30;;;7.70;99.90;;;;;;4997053;28;20220;-84
2022/02/11 14:20:10;;;;;;;0.30;0.30;;;7.80;99.90;;;;;;4989053;28;20247;-84
2022/02/11 14:22:37;;;;;;;0.30;0.30;;;7.60;99.90;;;;;;4996309;28;20191;-85
2022/02/11 14:25:04;;;;;;;0.50;0.50;;;7.50;99.90;;;;;;4998450;28;21253;-83
2022/02/11 14:27:33;;;;;;;0.20;0.20;;;7.50;99.90;;;;;;4998614;28;20306;-83
2022/02/11 14:29:59;;;;;;;1.07;1.03;;;7.50;99.90;;;;;;4998364;28;20234;-82
2022/02/11 14:32:26;;;;;;;0.30;0.30;;;7.60;99.90;;;;;;4982694;28;20219;-86
2022/02/11 14:34:51;;;;;;;0.30;0.30;;;7.50;99.90;;;;;;4997572;28;20210;-85
2022/02/11 14:37:17;;;;;;;2.10;0.70;;;7.30;99.90;;;;;;4997538;28;20192;-82
2022/02/11 14:39:43;;;;;;;0.50;0.50;;;7.30;99.90;;;;;;4997118;28;20286;-83
2022/02/11 14:42:09;;;;;;;0.40;0.40;;;7.20;99.90;;;;;;4997319;28;20239;-83
2022/02/11 14:44:38;;;;;;;0.20;0.20;;;7.10;99.90;;;;;;5003901;28;20327;-83
2022/02/11 14:47:05;;;;;;;0.20;0.20;;;7.10;99.90;;;;;;4988645;28;20210;-83
2022/02/11 14:49:31;;;;;;;0.27;0.27;;;7.00;99.90;;;;;;4999180;28;20192;-83
2022/02/11 14:52:00;;;;;;;0.30;0.30;;;6.90;99.90;;;;;;4981582;28;20215;-83
2022/02/11 14:54:26;;;;;;;0.30;0.30;;;6.90;99.90;;;;;;4995080;28;20226;-83
2022/02/11 14:56:55;;;;;;;0.47;0.47;;;6.80;99.90;;;;;;4995379;28;20675;-83
2022/02/11 14:59:22;;;;;;;0.20;0.20;;;6.70;99.90;;;;;;4997017;28;20219;-83
2022/02/11 15:01:48;;;;;;;0.40;0.40;;;6.60;99.90;;;;;;4996611;28;20196;-83
2022/02/11 15:04:18;;;;;;;0.30;0.30;;;6.60;99.90;;;;;;4988859;28;20828;-83
2022/02/11 15:06:50;;;;;;;0.50;0.50;;;6.50;99.90;;;;;;4996806;28;20219;-82
2022/02/11 15:09:18;;;;;;;0.30;0.30;;;6.40;99.90;;;;;;4996414;28;20211;-82
2022/02/11 15:11:44;;;;;;;0.20;0.20;;;6.40;99.90;;;;;;4998832;28;20238;-83
2022/02/11 15:14:11;;;;;;;0.63;0.63;;;6.40;99.90;;;;;;4994369;28;20307;-84
2022/02/11 15:16:37;;;;;;;3.43;1.17;;;6.30;99.90;;;;;;4996614;28;20627;-83
2022/02/11 15:19:04;;;;;;;7.10;0.90;;;6.30;99.90;;;;;;4997776;28;20226;-83
2022/02/11 15:21:30;;;;;;;5.33;0.50;;;6.20;99.90;;;;;;4995960;28;20285;-82
2022/02/11 15:23:57;;;;;;;0.50;0.50;;;6.20;99.90;;;;;;4988410;28;20306;-83
2022/02/11 15:26:22;;;;;;;0.30;0.30;;;6.10;99.90;;;;;;4971447;28;20239;-83
2022/02/11 15:28:49;;;;;;;0.87;0.87;;;6.10;99.90;;;;;;4987092;28;20684;-84
2022/02/11 15:31:14;;;;;;;7.47;0.53;;;6.20;99.90;;;;;;4972228;28;20194;-84
2022/02/11 15:33:42;;;;;;;0.37;0.37;;;6.20;99.90;;;;;;4979482;28;20661;-84
2022/02/11 15:36:09;;;;;;;0.23;0.23;;;6.20;99.90;;;;;;4981435;28;20588;-84
2022/02/11 15:38:35;;;;;;;0.30;0.30;;;6.10;99.90;;;;;;5002806;28;20328;-83
2022/02/11 15:41:02;;;;;;;1.53;1.43;;;6.20;99.90;;;;;;4997442;28;20194;-84
2022/02/11 15:43:29;;;;;;;0.87;0.87;;;6.20;99.90;;;;;;4998142;28;20287;-84
2022/02/11 15:45:55;;;;;;;3.30;0.40;;;6.20;99.90;;;;;;4987690;28;20331;-83
2022/02/11 15:48:21;;;;;;;0.50;0.50;;;6.20;99.90;;;;;;4995730;28;20251;-86
2022/02/11 15:50:48;;;;;;;0.77;0.57;;;6.20;99.90;;;;;;4995028;28;20212;-84
2022/02/11 15:53:15;;;;;;;0.67;0.67;;;6.10;99.90;;;;;;4994671;28;20706;-85
2022/02/11 15:55:41;;;;;;;0.30;0.30;;;6.00;99.90;;;;;;4996592;28;20237;-85
2022/02/11 15:58:08;;;;;;;0.30;0.30;;;6.00;99.90;;;;;;4995133;28;20212;-84
2022/02/11 16:00:35;;;;;;;0.30;0.30;;;6.00;99.90;;;;;;4986614;28;20238;-84
2022/02/11 16:03:01;;;;;;;0.50;0.50;;;5.90;99.90;;;;;;4995697;28;20227;-86
2022/02/11 16:05:27;;;;;;;0.53;0.53;;;6.00;99.90;;;;;;4996376;28;20229;-87
2022/02/11 16:07:54;;;;;;;0.40;0.40;;;6.00;99.90;;;;;;5004051;28;20196;-85
2022/02/11 16:10:25;;;;;;;0.30;0.30;;;6.00;99.90;;;;;;4995458;28;20199;-85
2022/02/11 16:12:51;;;;;;;0.30;0.30;;;5.90;99.90;;;;;;4987222;28;20523;-84
2022/02/11 16:15:17;;;;;;;0.30;0.30;;;5.90;99.90;;;;;;4992294;28;20310;-85
2022/02/11 16:18:03;;;;;;;1.87;0.90;;;5.80;99.90;;;;;;4991836;28;20226;-86
2022/02/11 16:20:37;;;;;;;1.17;0.83;;;5.70;99.90;;;;;;4993736;28;21052;-84
2022/02/11 16:23:06;;;;;;;0.40;0.40;;;5.60;99.90;;;;;;4991590;28;20192;-84
2022/02/11 16:25:33;;;;;;;0.30;0.30;;;5.50;99.90;;;;;;4995204;28;20235;-82
2022/02/11 16:27:59;;;;;;;2.23;0.40;;;5.40;99.90;;;;;;4994098;28;20250;-84
2022/02/11 16:30:25;;;;;;;0.30;0.30;;;5.30;99.90;;;;;;4977450;28;20291;-83
2022/02/11 16:32:51;;;;;;;0.90;0.87;;;5.20;99.90;;;;;;4978051;28;20216;-82
2022/02/11 16:35:17;;;;;;;0.37;0.37;;;5.10;99.90;;;;;;4979276;28;20232;-83
2022/02/11 16:37:44;;;;;;;0.80;0.80;;;5.00;99.90;;;;;;4993357;28;20192;-83
2022/02/11 16:40:10;;;;;;;0.23;0.23;;;5.00;99.90;;;;;;4985628;28;20258;-83
2022/02/11 16:42:37;;;;;;;0.40;0.40;;;4.90;99.90;;;;;;4985468;28;20258;-84
2022/02/11 16:45:04;;;;;;;0.20;0.20;;;4.90;99.90;;;;;;4977848;28;20246;-83
2022/02/11 16:47:30;;;;;;;0.30;0.30;;;4.70;99.90;;;;;;5002420;28;20224;-84